EmailTwitter


Observations de surface / France / LFPO (07149)

Régions: Québec | Canada | États-Unis | Europe | France | UK | Ailleurs
Station
Affichage
Infos & localisation pour LFPO (07149) | Aide pour décoder les METARs

Observations prises le 2021-03-05 à 03H30 UTC à PARIS/ORLY, FR (LFPO)

Etat du ciel: partiellement nuageux.

Température: 5.0 Celsius

Point de rosée: 1.0 Celsius

Humidité relative: 75%

Facteur vent: 1.

Vents: Nord-nord-est à 19 km/h ou 10 noeuds.

Pression au niveau moyen de la mer: 102.40 kilopascals.

Visibilité horizontale: 6.21 milles terrestres ou 9.94 kilomètres.

Hauteur du plafond: 975 mètres ( 3200 pieds ).

Observation METAR:

LFPO 050330Z 02010KT 9999 BKN032 05/01 Q1024 NOSIG=